Tropical Cyclones
[Index]
Main Index Home Page Stock Weather Photos Extreme Storms Discussion Storm News and Storm Chasing Reports Tropical Cyclones / Hurricanes / Typhoons Weather Data and Links Wild Fires / Bushfires Weather Observation Techniques Weather Picture Catalogue Tornado Pictures and Reports Stock Video Footage and DVDs for sale
Season 2012-2013 Tropical Cyclone TIM Track Map
Season 2012-2013 Summaries: [BoM-AU] [JTWC-AU] [JTWC-SIO] [JTWC-SPAC] [JTWC-SH]
<<- Previous TC | JTWC 2012-2013 Season | Next TC ->>

click for intensity scale information  Lat/long Grid: Show Hide

 Date Labels: Show Hide

Joint Typhoon Warning Centre Cyclone Data

Name: TIM

13 Mar 2013 06:00 UTC to 18 Mar 2013 18:00 UTC

    date/time    lat    long     hPa   cat  kts
2013-03-13 06   11.6   144.3    1007         20          
2013-03-13 12   12.2   146.2    1004         25          
2013-03-13 18   13.3   147.4     996         35          
2013-03-14 00   14.2   148.5     989    1    45          
2013-03-14 06   14.8   149.8     989    1    45          
2013-03-14 12   15.3   151.0     985    1    50          
2013-03-14 18   15.2   152.2     985    1    50          
2013-03-14 18   15.2   152.2     985    1    50          
2013-03-15 00   15.4   153.3     989    1    45          
2013-03-15 06   15.8   154.2     989    1    45          
2013-03-15 12   16.3   154.4     989    1    45          
2013-03-15 18   16.6   154.3     993    1    40          
2013-03-16 00   16.9   154.2     993    1    40          
2013-03-16 06   17.3   154.0     996         35          
2013-03-16 12   17.6   153.6     996         35          
2013-03-16 18   18.1   153.4     996         35          
2013-03-17 00   18.6   153.3     996         35          
2013-03-17 06   18.9   153.0     996         35          
2013-03-17 12   19.1   152.6     996         35          
2013-03-17 18   19.3   152.4    1000         30          
2013-03-18 00   19.4   152.1    1000         30          
2013-03-18 06   19.2   151.7    1004         25          
2013-03-18 12   19.2   151.3    1004         25          
2013-03-18 18   19.2   150.8    1004         25          
Winds are 1-min average.

Tropical cyclone tracks developed by Michael Bath using data from the Joint Typhoon Warning Centre Best Tracks and Google Maps.


[Australian Severe Weather index] [Copyright Notice] [Email Contacts] [Search This Site] [Privacy Policy]
Document: tropical_cyclone_tim.htm Updated: 28 June 2017